Time;durP1;ratioP1;P1;durP2;ratioP2;P2;SDS_P1;SDS_P2;PMS_P1;PMS_P2;Temp;Humidity;BMP_temperature;BMP_pressure;BME280_temperature;BME280_humidity;BME280_pressure;Samples;Min_cycle;Max_cycle;Signal;HPM_P1;HPM_P2
2021/12/16 06:49:38;;;;;;;19.95;12.90;;;;;;;;;;10502747;27;20878;-83
2021/12/16 06:54:55;;;;;;;17.27;12.20;;;;;;;;;;10497814;28;20029;-83
2021/12/16 07:00:09;;;;;;;23.17;16.13;;;;;;;;;;10502527;28;20021;-83
2021/12/16 07:05:11;;;;;;;19.00;14.02;;;;;;;;;;10502974;28;20028;-83
2021/12/16 07:10:13;;;;;;;17.33;11.95;;;;;;;;;;10502181;28;20550;-83
2021/12/16 07:15:15;;;;;;;33.65;23.45;;;;;;;;;;10505409;28;20393;-84
2021/12/16 07:20:19;;;;;;;21.25;16.58;;;;;;;;;;10499869;28;20029;-84
2021/12/16 07:25:20;;;;;;;17.95;14.20;;;;;;;;;;10501200;28;20412;-84
2021/12/16 07:30:24;;;;;;;19.50;15.55;;;;;;;;;;10502957;28;20028;-83
2021/12/16 07:35:27;;;;;;;25.02;18.30;;;;;;;;;;10500091;28;20111;-84
2021/12/16 07:40:29;;;;;;;39.40;27.13;;;;;;;;;;10500825;28;20029;-84
2021/12/16 07:45:33;;;;;;;40.30;28.27;;;;;;;;;;10500323;28;20033;-84
2021/12/16 07:50:34;;;;;;;25.27;17.70;;;;;;;;;;10500621;28;20056;-84
2021/12/16 07:55:35;;;;;;;31.63;24.83;;;;;;;;;;10500705;28;20035;-84
2021/12/16 08:00:37;;;;;;;19.08;14.77;;;;;;;;;;10476377;28;20021;-83
2021/12/16 08:05:40;;;;;;;23.20;17.13;;;;;;;;;;10473273;28;20047;-80
2021/12/16 08:10:41;;;;;;;28.45;20.23;;;;;;;;;;10473659;28;20025;-85
2021/12/16 08:15:42;;;;;;;30.58;21.23;;;;;;;;;;10475925;28;20390;-86
2021/12/16 08:20:44;;;;;;;30.48;22.00;;;;;;;;;;10482837;28;20136;-86
2021/12/16 08:25:45;;;;;;;30.40;21.63;;;;;;;;;;10478435;28;20412;-86
2021/12/16 08:30:47;;;;;;;31.10;22.40;;;;;;;;;;10482516;28;20028;-85
2021/12/16 08:35:50;;;;;;;32.53;22.00;;;;;;;;;;10493490;28;20187;-84
2021/12/16 08:40:53;;;;;;;34.83;23.08;;;;;;;;;;10476005;28;20021;-85
2021/12/16 08:45:54;;;;;;;32.65;22.92;;;;;;;;;;10473000;28;20039;-85
2021/12/16 08:50:57;;;;;;;30.52;21.52;;;;;;;;;;10470506;28;20033;-85
2021/12/16 08:55:58;;;;;;;30.67;20.67;;;;;;;;;;10473336;28;20035;-86
2021/12/16 09:01:03;;;;;;;27.55;20.02;;;;;;;;;;10482993;28;20021;-85
2021/12/16 09:06:05;;;;;;;27.30;18.67;;;;;;;;;;10474510;28;20033;-84
2021/12/16 09:11:08;;;;;;;23.15;17.60;;;;;;;;;;10475641;28;20120;-84
2021/12/16 09:16:13;;;;;;;23.40;15.95;;;;;;;;;;10472503;28;20069;-84
2021/12/16 09:21:15;;;;;;;26.95;19.15;;;;;;;;;;10474504;28;20025;-84
2021/12/16 09:26:16;;;;;;;26.60;18.30;;;;;;;;;;10472057;28;20029;-85
2021/12/16 09:31:19;;;;;;;27.35;17.92;;;;;;;;;;10467227;28;20075;-83
2021/12/16 09:36:22;;;;;;;26.25;17.63;;;;;;;;;;10473553;28;20120;-83
2021/12/16 09:41:24;;;;;;;31.38;21.05;;;;;;;;;;10478041;28;20526;-86
2021/12/16 09:46:26;;;;;;;32.17;22.55;;;;;;;;;;10486347;28;20083;-85
2021/12/16 09:51:29;;;;;;;32.65;22.13;;;;;;;;;;10483474;28;20445;-85
2021/12/16 09:56:31;;;;;;;41.58;25.13;;;;;;;;;;10473084;28;20068;-83
2021/12/16 10:01:33;;;;;;;37.65;23.13;;;;;;;;;;10477269;28;20032;-84
2021/12/16 10:06:36;;;;;;;31.88;21.00;;;;;;;;;;10478749;28;20028;-84
2021/12/16 10:11:38;;;;;;;33.63;22.05;;;;;;;;;;10481942;28;20053;-84
2021/12/16 10:22:03;;;;;;;;;;;;;;;;;;10484219;28;20112;-83
2021/12/16 10:27:08;;;;;;;29.80;20.33;;;;;;;;;;10478728;28;20449;-86
2021/12/16 10:32:28;;;;;;;30.25;20.40;;;;;;;;;;10490284;28;20064;-84
2021/12/16 10:43:27;;;;;;;36.72;22.85;;;;;;;;;;10486204;28;20025;-83
2021/12/16 10:48:30;;;;;;;33.30;21.40;;;;;;;;;;10470249;28;20482;-82
2021/12/16 10:53:43;;;;;;;28.77;17.92;;;;;;;;;;10468932;28;20055;-83
2021/12/16 10:58:52;;;;;;;28.52;18.48;;;;;;;;;;10472492;28;20029;-84
2021/12/16 11:03:53;;;;;;;37.17;25.02;;;;;;;;;;10469968;28;20052;-83
2021/12/16 11:08:54;;;;;;;29.88;19.70;;;;;;;;;;10468365;28;20363;-85
2021/12/16 11:14:05;;;;;;;32.22;21.02;;;;;;;;;;10468239;28;20039;-84
2021/12/16 11:19:06;;;;;;;33.78;21.75;;;;;;;;;;10473354;28;20035;-83
2021/12/16 11:24:22;;;;;;;26.50;18.55;;;;;;;;;;10471431;28;20025;-83
2021/12/16 11:29:28;;;;;;;31.15;21.10;;;;;;;;;;10477834;28;20043;-84
2021/12/16 11:34:29;;;;;;;28.13;20.10;;;;;;;;;;10485386;28;20065;-84
2021/12/16 11:39:30;;;;;;;28.35;18.98;;;;;;;;;;10475236;28;20025;-84
2021/12/16 11:44:38;;;;;;;32.03;21.83;;;;;;;;;;10476938;28;20089;-86
2021/12/16 11:49:41;;;;;;;28.70;19.60;;;;;;;;;;10479716;28;20033;-85
2021/12/16 11:54:47;;;;;;;28.10;18.65;;;;;;;;;;10484904;28;20089;-83
2021/12/16 11:59:58;;;;;;;26.20;18.08;;;;;;;;;;10483179;28;20047;-84
2021/12/16 12:05:14;;;;;;;31.30;20.80;;;;;;;;;;10485028;28;20021;-85
2021/12/16 12:10:23;;;;;;;39.97;29.48;;;;;;;;;;10486478;28;20029;-84
2021/12/16 12:15:24;;;;;;;26.10;18.55;;;;;;;;;;10493284;28;20099;-86
2021/12/16 12:20:29;;;;;;;26.63;19.15;;;;;;;;;;10490098;28;20119;-85
2021/12/16 12:25:30;;;;;;;25.02;18.50;;;;;;;;;;10498104;28;20025;-85
2021/12/16 12:30:31;;;;;;;26.17;18.58;;;;;;;;;;10493930;28;20059;-83
2021/12/16 12:35:32;;;;;;;23.65;17.67;;;;;;;;;;10494208;28;20093;-84
2021/12/16 12:40:33;;;;;;;26.80;19.25;;;;;;;;;;10491360;28;20473;-84
2021/12/16 12:45:35;;;;;;;22.05;15.75;;;;;;;;;;10488657;28;20052;-83
2021/12/16 12:50:38;;;;;;;25.65;18.25;;;;;;;;;;10481797;28;20036;-84
2021/12/16 12:55:39;;;;;;;23.40;16.67;;;;;;;;;;10484452;28;20573;-83
2021/12/16 13:00:44;;;;;;;25.05;17.77;;;;;;;;;;10502827;28;20474;-84
2021/12/16 13:06:02;;;;;;;24.98;17.77;;;;;;;;;;10507946;28;20025;-84
2021/12/16 13:11:06;;;;;;;23.02;16.75;;;;;;;;;;10506420;28;20056;-81
2021/12/16 13:32:19;;;;;;;25.30;18.77;;;;;;;;;;10479768;28;20029;-83
2021/12/16 13:37:26;;;;;;;27.30;19.75;;;;;;;;;;10474195;28;20028;-84
2021/12/16 13:42:39;;;;;;;31.58;20.55;;;;;;;;;;10471925;28;20406;-85
2021/12/16 14:03:42;;;;;;;33.22;22.00;;;;;;;;;;10470881;28;20031;-86
2021/12/16 14:08:47;;;;;;;50.25;31.52;;;;;;;;;;10477342;28;20021;-86
2021/12/16 14:24:42;;;;;;;46.97;30.35;;;;;;;;;;10483058;28;20063;-80
2021/12/16 14:35:36;;;;;;;40.40;26.15;;;;;;;;;;10472321;28;20037;-86
2021/12/16 14:40:52;;;;;;;38.65;25.08;;;;;;;;;;10469263;28;20057;-85
2021/12/16 14:45:57;;;;;;;35.42;23.90;;;;;;;;;;10468123;28;20037;-85
2021/12/16 14:50:58;;;;;;;34.30;22.60;;;;;;;;;;10469849;28;20086;-85
2021/12/16 14:56:11;;;;;;;32.75;21.25;;;;;;;;;;10466014;28;20167;-86
2021/12/16 15:01:19;;;;;;;33.22;23.30;;;;;;;;;;10465463;28;20130;-85
2021/12/16 15:06:30;;;;;;;31.50;21.25;;;;;;;;;;10466287;28;20021;-85
2021/12/16 15:11:39;;;;;;;;;;;;;;;;;;10477160;28;20143;-85
2021/12/16 15:42:55;;;;;;;37.53;24.80;;;;;;;;;;10476767;28;20498;-86
2021/12/16 15:48:02;;;;;;;41.75;25.88;;;;;;;;;;10472747;28;20539;-86
2021/12/16 15:53:06;;;;;;;32.42;21.90;;;;;;;;;;10473467;28;20063;-86
2021/12/16 15:58:27;;;;;;;35.20;22.65;;;;;;;;;;10476133;28;20479;-86
2021/12/16 16:03:29;;;;;;;31.63;21.00;;;;;;;;;;10476183;28;20116;-86
2021/12/16 16:08:31;;;;;;;48.65;29.05;;;;;;;;;;10488689;28;20049;-86
2021/12/16 16:13:41;;;;;;;36.65;23.75;;;;;;;;;;10479982;28;20067;-86
2021/12/16 16:18:54;;;;;;;40.03;25.20;;;;;;;;;;10479369;28;20028;-86
2021/12/16 16:24:00;;;;;;;40.70;26.08;;;;;;;;;;10493734;28;20029;-85
2021/12/16 16:29:09;;;;;;;37.08;24.83;;;;;;;;;;10487369;28;20036;-85
2021/12/16 16:34:15;;;;;;;46.38;29.35;;;;;;;;;;10505611;28;20060;-84
2021/12/16 16:39:19;;;;;;;39.72;25.95;;;;;;;;;;10503837;28;20029;-85
2021/12/16 16:44:21;;;;;;;34.88;23.05;;;;;;;;;;10506481;28;20035;-84
2021/12/16 16:49:36;;;;;;;32.28;21.92;;;;;;;;;;10504450;28;20067;-86
2021/12/16 16:54:39;;;;;;;35.83;24.02;;;;;;;;;;10494638;28;20029;-83
2021/12/16 16:59:46;;;;;;;35.17;23.25;;;;;;;;;;10492423;28;20127;-84
2021/12/16 17:04:51;;;;;;;33.65;23.20;;;;;;;;;;10489396;28;20367;-86
2021/12/16 17:09:52;;;;;;;36.67;24.30;;;;;;;;;;10492310;28;20581;-84
2021/12/16 17:14:59;;;;;;;31.85;20.73;;;;;;;;;;10491831;28;20021;-84
2021/12/16 17:20:13;;;;;;;28.92;19.60;;;;;;;;;;10486552;28;20032;-82
2021/12/16 17:25:15;;;;;;;28.35;19.85;;;;;;;;;;10495809;28;20040;-81
2021/12/16 17:30:20;;;;;;;26.67;19.38;;;;;;;;;;10479533;28;20079;-81
2021/12/16 17:35:25;;;;;;;24.52;17.75;;;;;;;;;;10468749;28;20064;-81
2021/12/16 17:40:32;;;;;;;26.05;18.17;;;;;;;;;;10468379;28;20033;-81
2021/12/16 17:45:35;;;;;;;25.27;18.60;;;;;;;;;;10472167;28;20033;-81
2021/12/16 17:50:43;;;;;;;25.27;18.42;;;;;;;;;;10468517;28;20079;-81
2021/12/16 17:55:46;;;;;;;20.15;15.32;;;;;;;;;;10495039;28;20048;-81
2021/12/16 18:00:50;;;;;;;21.65;16.13;;;;;;;;;;10490690;28;20066;-81
2021/12/16 18:06:02;;;;;;;23.17;16.70;;;;;;;;;;10499590;28;20032;-80
2021/12/16 18:11:08;;;;;;;23.95;17.20;;;;;;;;;;10499583;28;20033;-80
2021/12/16 18:16:15;;;;;;;23.20;16.23;;;;;;;;;;10488532;28;20085;-81
2021/12/16 18:21:16;;;;;;;30.65;20.98;;;;;;;;;;10480315;28;20394;-81
2021/12/16 18:26:17;;;;;;;23.23;16.83;;;;;;;;;;10475068;28;20044;-81
2021/12/16 18:31:28;;;;;;;19.35;14.05;;;;;;;;;;10470843;28;20028;-81
2021/12/16 18:36:34;;;;;;;17.25;13.18;;;;;;;;;;10476206;28;20029;-81
2021/12/16 18:41:38;;;;;;;22.13;15.90;;;;;;;;;;10476692;28;20029;-81
2021/12/16 18:46:41;;;;;;;19.33;14.63;;;;;;;;;;10473158;28;20029;-81
2021/12/16 18:56:44;;;;;;;21.40;15.73;;;;;;;;;;10474277;28;20478;-81
2021/12/16 19:01:48;;;;;;;20.30;14.93;;;;;;;;;;10473746;28;20025;-81
2021/12/16 19:06:50;;;;;;;23.05;17.42;;;;;;;;;;10472630;28;20152;-81
2021/12/16 19:11:55;;;;;;;21.83;14.60;;;;;;;;;;10472431;28;20477;-81
2021/12/16 19:16:58;;;;;;;25.60;18.33;;;;;;;;;;10471718;28;20040;-81
2021/12/16 19:22:04;;;;;;;17.00;12.85;;;;;;;;;;10469770;28;20040;-81
2021/12/16 19:27:07;;;;;;;22.90;17.05;;;;;;;;;;10470581;28;20029;-81
2021/12/16 19:32:09;;;;;;;19.50;13.93;;;;;;;;;;10470622;28;20067;-81
2021/12/16 19:37:10;;;;;;;17.55;13.00;;;;;;;;;;10472254;28;20391;-81
2021/12/16 19:42:14;;;;;;;25.13;17.80;;;;;;;;;;10473200;28;20025;-81
2021/12/16 19:47:15;;;;;;;21.63;15.20;;;;;;;;;;10470336;28;20040;-81
2021/12/16 19:52:16;;;;;;;25.05;16.92;;;;;;;;;;10471622;28;20037;-81
2021/12/16 19:57:19;;;;;;;18.73;13.55;;;;;;;;;;10475968;28;20025;-80
2021/12/16 20:02:23;;;;;;;17.98;13.23;;;;;;;;;;10486304;28;20025;-80
2021/12/16 20:07:24;;;;;;;22.95;15.68;;;;;;;;;;10478569;28;20111;-80
2021/12/16 20:12:27;;;;;;;23.55;15.65;;;;;;;;;;10478166;28;20033;-80
2021/12/16 20:17:29;;;;;;;21.80;15.43;;;;;;;;;;10478376;28;20021;-80
2021/12/16 20:22:32;;;;;;;26.00;17.83;;;;;;;;;;10476015;28;20029;-80
2021/12/16 20:27:45;;;;;;;20.45;15.02;;;;;;;;;;10488021;28;20116;-80
2021/12/16 20:32:48;;;;;;;24.20;18.08;;;;;;;;;;10475925;28;20029;-80
2021/12/16 20:37:49;;;;;;;28.13;19.45;;;;;;;;;;10475757;28;20033;-80
2021/12/16 20:42:53;;;;;;;25.05;18.35;;;;;;;;;;10475116;28;20024;-80
2021/12/16 20:47:56;;;;;;;24.40;17.60;;;;;;;;;;10474966;28;20039;-80
2021/12/16 20:52:57;;;;;;;22.02;16.13;;;;;;;;;;10475091;28;20025;-80
2021/12/16 20:58:01;;;;;;;18.85;12.98;;;;;;;;;;10475404;28;20483;-80
2021/12/16 21:03:04;;;;;;;23.23;16.73;;;;;;;;;;10475162;28;20115;-80
2021/12/16 21:08:06;;;;;;;19.90;14.13;;;;;;;;;;10474386;28;20029;-80
2021/12/16 21:13:07;;;;;;;22.95;15.55;;;;;;;;;;10475694;28;20055;-80
